WXM80 ListenWXM80 Stop

You find our weather info also at:

UK Metoffice

WeatherCloud

Weather Underground

Northeastern Weather Network

AWEKAS

Citizen Weather Observer Program (CWOP)

HAMweather, WeatherForYou, PWS Weather


Weather Underground History page Text

Daily Summary for January 27, 2018 Units:  Both    English   Metric
« Previous Day
Next Day »
Daily Weekly Monthly Yearly Custom
  High: Low: Average:
Temperature: TemperatureF °F /  -17.8 °C 26.0 °F /  -3.3 °C 42.3 °F /  5.7 °C
Dew Point: DewpointF °F /  -17.8 °C 22.4 °F /  -5.3 °C 34.9 °F /  1.6 °C
Humidity: Humidity % 46 % 76 %
Wind Speed: WindSpeedMPH mph /  0 km/h - 3.9 mph /  6.3 km/h
Wind Gust: WindSpeedGustMPH mph /  0 km/h - -
Wind:- - SSW
Pressure: PressureIn in /  0 hPa 29.97 in /  1014.8 hPa -
Precipitation: 0.00 in /  0 mm    
Historical Graphs
 
 
Tabular Data for January 27, 2018
Time Temperature Dew Point Pressure Wind Wind Speed Wind Gust Humidity Rainfall Rate (Hourly)
TemperatureF °F /  -17.8 °C DewpointF °F /  -17.8 °C PressureIn in /  0 hPa Calm     Humidity % HourlyPrecipIn in /  0 mm
00:03 28.7 °F /  -1.8 °C 23.9 °F /  -4.5 °C 30.36 in /  1028 hPa SSW 1.3 mph /  2.1 km/h 3.0 mph /  4.8 km/h 82 % 0.00 in /  0 mm
00:08 28.7 °F /  -1.8 °C 23.9 °F /  -4.5 °C 30.36 in /  1028 hPa SSW 0.5 mph /  0.8 km/h 3.5 mph /  5.6 km/h 82 % 0.00 in /  0 mm
00:13 28.8 °F /  -1.8 °C 24.6 °F /  -4.1 °C 30.35 in /  1027.7 hPa SSW 0.4 mph /  0.6 km/h 3.5 mph /  5.6 km/h 84 % 0.00 in /  0 mm
00:19 28.8 °F /  -1.8 °C 24.6 °F /  -4.1 °C 30.36 in /  1028 hPa SW 1.2 mph /  1.9 km/h 3.5 mph /  5.6 km/h 84 % 0.00 in /  0 mm
00:24 28.9 °F /  -1.7 °C 25.0 °F /  -3.9 °C 30.35 in /  1027.7 hPa South 0.2 mph /  0.3 km/h 2.3 mph /  3.7 km/h 85 % 0.00 in /  0 mm
00:29 28.9 °F /  -1.7 °C 25.0 °F /  -3.9 °C 30.35 in /  1027.7 hPa SSW 1.7 mph /  2.7 km/h 3.5 mph /  5.6 km/h 85 % 0.00 in /  0 mm
00:34 29.0 °F /  -1.7 °C 25.1 °F /  -3.8 °C 30.35 in /  1027.7 hPa Calm   2.3 mph /  3.7 km/h 85 % 0.00 in /  0 mm
00:39 29.1 °F /  -1.6 °C 25.4 °F /  -3.7 °C 30.35 in /  1027.7 hPa Calm   1.2 mph /  1.9 km/h 86 % 0.00 in /  0 mm
00:44 29.1 °F /  -1.6 °C 25.4 °F /  -3.7 °C 30.35 in /  1027.7 hPa Calm     86 % 0.00 in /  0 mm
00:49 29.1 °F /  -1.6 °C 25.2 °F /  -3.8 °C 30.34 in /  1027.3 hPa Calm     85 % 0.00 in /  0 mm
00:54 29.0 °F /  -1.7 °C 25.1 °F /  -3.8 °C 30.34 in /  1027.3 hPa Calm     85 % 0.00 in /  0 mm
00:59 28.9 °F /  -1.7 °C 24.7 °F /  -4.1 °C 30.34 in /  1027.3 hPa Calm     84 % 0.00 in /  0 mm
01:04 28.8 °F /  -1.8 °C 24.6 °F /  -4.1 °C 30.34 in /  1027.3 hPa Calm     84 % 0.00 in /  0 mm
01:09 28.6 °F /  -1.9 °C 24.4 °F /  -4.2 °C 30.34 in /  1027.3 hPa Calm     84 % 0.00 in /  0 mm
01:14 28.5 °F /  -1.9 °C 24.3 °F /  -4.3 °C 30.34 in /  1027.3 hPa Calm     84 % 0.00 in /  0 mm
01:19 28.4 °F /  -2 °C 24.2 °F /  -4.3 °C 30.34 in /  1027.3 hPa Calm     84 % 0.00 in /  0 mm
01:24 28.2 °F /  -2.1 °C 24.0 °F /  -4.4 °C 30.34 in /  1027.3 hPa Calm     84 % 0.00 in /  0 mm
01:29 28.1 °F /  -2.2 °C 23.9 °F /  -4.5 °C 30.34 in /  1027.3 hPa Calm     84 % 0.00 in /  0 mm
01:34 27.9 °F /  -2.3 °C 23.4 °F /  -4.8 °C 30.34 in /  1027.3 hPa Calm     83 % 0.00 in /  0 mm
01:39 27.8 °F /  -2.3 °C 23.3 °F /  -4.8 °C 30.34 in /  1027.3 hPa Calm     83 % 0.00 in /  0 mm
01:44 27.6 °F /  -2.4 °C 23.4 °F /  -4.8 °C 30.34 in /  1027.3 hPa Calm     84 % 0.00 in /  0 mm
01:50 27.5 °F /  -2.5 °C 23.0 °F /  -5 °C 30.34 in /  1027.3 hPa Calm     83 % 0.00 in /  0 mm
01:55 27.4 °F /  -2.6 °C 23.2 °F /  -4.9 °C 30.33 in /  1027 hPa Calm   1.2 mph /  1.9 km/h 84 % 0.00 in /  0 mm
02:00 27.2 °F /  -2.7 °C 22.7 °F /  -5.2 °C 30.33 in /  1027 hPa Calm     83 % 0.00 in /  0 mm
02:05 27.1 °F /  -2.7 °C 22.6 °F /  -5.2 °C 30.33 in /  1027 hPa Calm     83 % 0.00 in /  0 mm
02:10 26.9 °F /  -2.8 °C 22.4 °F /  -5.3 °C 30.33 in /  1027 hPa Calm     83 % 0.00 in /  0 mm
02:15 26.8 °F /  -2.9 °C 22.6 °F /  -5.2 °C 30.33 in /  1027 hPa Calm     84 % 0.00 in /  0 mm
02:20 26.8 °F /  -2.9 °C 22.6 °F /  -5.2 °C 30.34 in /  1027.3 hPa Calm     84 % 0.00 in /  0 mm
02:25 26.7 °F /  -2.9 °C 22.8 °F /  -5.1 °C 30.33 in /  1027 hPa Calm     85 % 0.00 in /  0 mm
02:30 26.6 °F /  -3 °C 22.7 °F /  -5.2 °C 30.33 in /  1027 hPa Calm     85 % 0.00 in /  0 mm
02:35 26.5 °F /  -3.1 °C 22.6 °F /  -5.2 °C 30.32 in /  1026.6 hPa Calm     85 % 0.00 in /  0 mm
02:40 26.5 °F /  -3.1 °C 22.9 °F /  -5.1 °C 30.32 in /  1026.6 hPa Calm     86 % 0.00 in /  0 mm
02:45 26.4 °F /  -3.1 °C 22.8 °F /  -5.1 °C 30.32 in /  1026.6 hPa Calm     86 % 0.00 in /  0 mm
02:50 26.3 °F /  -3.2 °C 22.7 °F /  -5.2 °C 30.32 in /  1026.6 hPa Calm     86 % 0.00 in /  0 mm
02:55 26.3 °F /  -3.2 °C 23.0 °F /  -5 °C 30.32 in /  1026.6 hPa Calm     87 % 0.00 in /  0 mm
03:00 26.3 °F /  -3.2 °C 23.0 °F /  -5 °C 30.31 in /  1026.3 hPa Calm     87 % 0.00 in /  0 mm
03:05 26.3 °F /  -3.2 °C 23.2 °F /  -4.9 °C 30.31 in /  1026.3 hPa Calm     88 % 0.00 in /  0 mm
03:10 26.2 °F /  -3.2 °C 22.9 °F /  -5.1 °C 30.30 in /  1026 hPa Calm     87 % 0.00 in /  0 mm
03:15 26.1 °F /  -3.3 °C 23.0 °F /  -5 °C 30.30 in /  1026 hPa Calm     88 % 0.00 in /  0 mm
03:21 26.1 °F /  -3.3 °C 23.0 °F /  -5 °C 30.30 in /  1026 hPa Calm     88 % 0.00 in /  0 mm
03:26 26.0 °F /  -3.3 °C 22.9 °F /  -5.1 °C 30.30 in /  1026 hPa Calm     88 % 0.00 in /  0 mm
03:31 26.0 °F /  -3.3 °C 22.9 °F /  -5.1 °C 30.29 in /  1025.6 hPa Calm     88 % 0.00 in /  0 mm
03:36 26.1 °F /  -3.3 °C 23.3 °F /  -4.8 °C 30.29 in /  1025.6 hPa Calm     89 % 0.00 in /  0 mm
03:41 26.3 °F /  -3.2 °C 23.8 °F /  -4.6 °C 30.29 in /  1025.6 hPa Calm     90 % 0.00 in /  0 mm
03:46 26.5 °F /  -3.1 °C 24.2 °F /  -4.3 °C 30.29 in /  1025.6 hPa Calm     91 % 0.00 in /  0 mm
03:51 26.5 °F /  -3.1 °C 24.2 °F /  -4.3 °C 30.29 in /  1025.6 hPa Calm     91 % 0.00 in /  0 mm
03:56 26.6 °F /  -3 °C 24.3 °F /  -4.3 °C 30.29 in /  1025.6 hPa Calm     91 % 0.00 in /  0 mm
04:01 26.7 °F /  -2.9 °C 24.4 °F /  -4.2 °C 30.29 in /  1025.6 hPa Calm     91 % 0.00 in /  0 mm
04:06 26.8 °F /  -2.9 °C 24.5 °F /  -4.2 °C 30.29 in /  1025.6 hPa Calm     91 % 0.00 in /  0 mm
04:11 26.9 °F /  -2.8 °C 24.9 °F /  -3.9 °C 30.29 in /  1025.6 hPa Calm     92 % 0.00 in /  0 mm
04:16 26.9 °F /  -2.8 °C 24.9 °F /  -3.9 °C 30.29 in /  1025.6 hPa Calm     92 % 0.00 in /  0 mm
04:21 27.0 °F /  -2.8 °C 25.0 °F /  -3.9 °C 30.29 in /  1025.6 hPa Calm     92 % 0.00 in /  0 mm
04:26 27.1 °F /  -2.7 °C 25.1 °F /  -3.8 °C 30.28 in /  1025.3 hPa Calm     92 % 0.00 in /  0 mm
04:31 27.2 °F /  -2.7 °C 25.2 °F /  -3.8 °C 30.28 in /  1025.3 hPa Calm     92 % 0.00 in /  0 mm
04:36 27.2 °F /  -2.7 °C 25.2 °F /  -3.8 °C 30.28 in /  1025.3 hPa Calm     92 % 0.00 in /  0 mm
04:41 27.2 °F /  -2.7 °C 25.2 °F /  -3.8 °C 30.28 in /  1025.3 hPa Calm     92 % 0.00 in /  0 mm
04:46 27.2 °F /  -2.7 °C 25.2 °F /  -3.8 °C 30.27 in /  1024.9 hPa Calm     92 % 0.00 in /  0 mm
04:52 27.2 °F /  -2.7 °C 25.2 °F /  -3.8 °C 30.28 in /  1025.3 hPa Calm     92 % 0.00 in /  0 mm
04:57 27.4 °F /  -2.6 °C 25.4 °F /  -3.7 °C 30.28 in /  1025.3 hPa WNW 0.6 mph /  1 km/h 3.5 mph /  5.6 km/h 92 % 0.00 in /  0 mm
05:02 27.4 °F /  -2.6 °C 25.4 °F /  -3.7 °C 30.28 in /  1025.3 hPa Calm   1.2 mph /  1.9 km/h 92 % 0.00 in /  0 mm
05:07 27.7 °F /  -2.4 °C 25.9 °F /  -3.4 °C 30.28 in /  1025.3 hPa Calm   1.2 mph /  1.9 km/h 93 % 0.00 in /  0 mm
05:12 27.8 °F /  -2.3 °C 26.0 °F /  -3.3 °C 30.28 in /  1025.3 hPa Calm   1.2 mph /  1.9 km/h 93 % 0.00 in /  0 mm
05:17 27.9 °F /  -2.3 °C 26.1 °F /  -3.3 °C 30.27 in /  1024.9 hPa Calm     93 % 0.00 in /  0 mm
05:22 28.0 °F /  -2.2 °C 26.2 °F /  -3.2 °C 30.27 in /  1024.9 hPa West 0.1 mph /  0.2 km/h 1.0 mph /  1.6 km/h 93 % 0.00 in /  0 mm
05:27 28.4 °F /  -2 °C 26.9 °F /  -2.8 °C 30.27 in /  1024.9 hPa WSW 1.7 mph /  2.7 km/h 3.5 mph /  5.6 km/h 94 % 0.00 in /  0 mm
05:32 28.7 °F /  -1.8 °C 27.2 °F /  -2.7 °C 30.27 in /  1024.9 hPa Calm     94 % 0.00 in /  0 mm
05:37 29.0 °F /  -1.7 °C 27.5 °F /  -2.5 °C 30.27 in /  1024.9 hPa Calm     94 % 0.00 in /  0 mm
05:42 29.1 °F /  -1.6 °C 27.6 °F /  -2.4 °C 30.27 in /  1024.9 hPa Calm     94 % 0.00 in /  0 mm
05:44 29.2 °F /  -1.6 °C 27.7 °F /  -2.4 °C 30.27 in /  1024.9 hPa Calm     94 % 0.00 in /  0 mm
05:49 29.4 °F /  -1.4 °C 27.9 °F /  -2.3 °C 30.27 in /  1024.9 hPa Calm     94 % 0.00 in /  0 mm
05:54 29.8 °F /  -1.2 °C 28.5 °F /  -1.9 °C 30.26 in /  1024.6 hPa WSW 0.2 mph /  0.3 km/h 1.2 mph /  1.9 km/h 95 % 0.00 in /  0 mm
05:59 30.2 °F /  -1 °C 28.9 °F /  -1.7 °C 30.27 in /  1024.9 hPa WSW 0.4 mph /  0.6 km/h 1.2 mph /  1.9 km/h 95 % 0.00 in /  0 mm
06:04 30.3 °F /  -0.9 °C 29.0 °F /  -1.7 °C 30.26 in /  1024.6 hPa Calm   1.2 mph /  1.9 km/h 95 % 0.00 in /  0 mm
06:09 30.3 °F /  -0.9 °C 29.0 °F /  -1.7 °C 30.26 in /  1024.6 hPa SW 0.3 mph /  0.5 km/h 1.2 mph /  1.9 km/h 95 % 0.00 in /  0 mm
06:14 30.4 °F /  -0.9 °C 29.1 °F /  -1.6 °C 30.26 in /  1024.6 hPa SW 0.8 mph /  1.3 km/h 2.0 mph /  3.2 km/h 95 % 0.00 in /  0 mm
06:19 30.5 °F /  -0.8 °C 29.2 °F /  -1.6 °C 30.25 in /  1024.3 hPa SSW 0.2 mph /  0.3 km/h 2.3 mph /  3.7 km/h 95 % 0.00 in /  0 mm
06:24 30.6 °F /  -0.8 °C 29.3 °F /  -1.5 °C 30.25 in /  1024.3 hPa SSW 3.4 mph /  5.5 km/h 5.8 mph /  9.3 km/h 95 % 0.00 in /  0 mm
06:29 31.0 °F /  -0.6 °C 29.7 °F /  -1.3 °C 30.25 in /  1024.3 hPa SW 4.9 mph /  7.9 km/h 5.8 mph /  9.3 km/h 95 % 0.00 in /  0 mm
06:34 31.6 °F /  -0.2 °C 30.6 °F /  -0.8 °C 30.25 in /  1024.3 hPa SW 3.4 mph /  5.5 km/h 4.0 mph /  6.4 km/h 96 % 0.00 in /  0 mm
06:40 32.1 °F /  0.1 °C 31.1 °F /  -0.5 °C 30.25 in /  1024.3 hPa SW 4.9 mph /  7.9 km/h 5.8 mph /  9.3 km/h 96 % 0.00 in /  0 mm
06:44 32.8 °F /  0.4 °C 31.8 °F /  -0.1 °C 30.26 in /  1024.6 hPa WSW 4.0 mph /  6.4 km/h 10.4 mph /  16.7 km/h 96 % 0.00 in /  0 mm
06:50 33.4 °F /  0.8 °C 32.4 °F /  0.2 °C 30.26 in /  1024.6 hPa SW 3.1 mph /  5 km/h 9.2 mph /  14.8 km/h 96 % 0.00 in /  0 mm
06:55 33.9 °F /  1.1 °C 32.9 °F /  0.5 °C 30.26 in /  1024.6 hPa WSW 3.6 mph /  5.8 km/h 10.4 mph /  16.7 km/h 96 % 0.00 in /  0 mm
07:00 34.2 °F /  1.2 °C 33.2 °F /  0.7 °C 30.26 in /  1024.6 hPa WSW 3.1 mph /  5 km/h 6.9 mph /  11.1 km/h 96 % 0.00 in /  0 mm
07:05 34.4 °F /  1.3 °C 33.4 °F /  0.8 °C 30.26 in /  1024.6 hPa WSW 1.0 mph /  1.6 km/h 6.9 mph /  11.1 km/h 96 % 0.00 in /  0 mm
07:10 34.6 °F /  1.4 °C 33.6 °F /  0.9 °C 30.26 in /  1024.6 hPa SW 3.5 mph /  5.6 km/h 6.0 mph /  9.7 km/h 96 % 0.00 in /  0 mm
07:15 34.8 °F /  1.6 °C 33.8 °F /  1 °C 30.26 in /  1024.6 hPa SSW 2.2 mph /  3.5 km/h 6.9 mph /  11.1 km/h 96 % 0.00 in /  0 mm
07:20 34.9 °F /  1.6 °C 33.9 °F /  1.1 °C 30.26 in /  1024.6 hPa WSW 2.3 mph /  3.7 km/h 3.5 mph /  5.6 km/h 96 % 0.00 in /  0 mm
07:25 35.0 °F /  1.7 °C 34.0 °F /  1.1 °C 30.26 in /  1024.6 hPa SSW 2.4 mph /  3.9 km/h 7.0 mph /  11.3 km/h 96 % 0.00 in /  0 mm
07:30 35.2 °F /  1.8 °C 34.2 °F /  1.2 °C 30.26 in /  1024.6 hPa SW 2.4 mph /  3.9 km/h 5.8 mph /  9.3 km/h 96 % 0.00 in /  0 mm
07:35 35.3 °F /  1.8 °C 34.3 °F /  1.3 °C 30.26 in /  1024.6 hPa SSW 2.5 mph /  4 km/h 5.8 mph /  9.3 km/h 96 % 0.00 in /  0 mm
07:40 35.4 °F /  1.9 °C 34.4 °F /  1.3 °C 30.26 in /  1024.6 hPa SW 2.0 mph /  3.2 km/h 3.5 mph /  5.6 km/h 96 % 0.00 in /  0 mm
07:45 35.5 °F /  1.9 °C 34.5 °F /  1.4 °C 30.26 in /  1024.6 hPa WSW 0.8 mph /  1.3 km/h 3.5 mph /  5.6 km/h 96 % 0.00 in /  0 mm
07:50 35.6 °F /  2 °C 34.6 °F /  1.4 °C 30.26 in /  1024.6 hPa WSW 4.2 mph /  6.8 km/h 5.8 mph /  9.3 km/h 96 % 0.00 in /  0 mm
07:55 35.7 °F /  2.1 °C 34.7 °F /  1.5 °C 30.25 in /  1024.3 hPa WSW 3.3 mph /  5.3 km/h 5.8 mph /  9.3 km/h 96 % 0.00 in /  0 mm
08:00 35.8 °F /  2.1 °C 34.8 °F /  1.6 °C 30.25 in /  1024.3 hPa SW 3.2 mph /  5.1 km/h 4.0 mph /  6.4 km/h 96 % 0.00 in /  0 mm
08:05 36.1 °F /  2.3 °C 35.1 °F /  1.7 °C 30.25 in /  1024.3 hPa WSW 0.9 mph /  1.4 km/h 4.6 mph /  7.4 km/h 96 % 0.00 in /  0 mm
08:10 36.4 °F /  2.4 °C 35.4 °F /  1.9 °C 30.25 in /  1024.3 hPa SW 4.1 mph /  6.6 km/h 9.2 mph /  14.8 km/h 96 % 0.00 in /  0 mm
08:15 36.7 °F /  2.6 °C 35.7 °F /  2.1 °C 30.25 in /  1024.3 hPa SSW 3.3 mph /  5.3 km/h 7.0 mph /  11.3 km/h 96 % 0.00 in /  0 mm
08:21 37.0 °F /  2.8 °C 36.0 °F /  2.2 °C 30.25 in /  1024.3 hPa SW 3.3 mph /  5.3 km/h 9.0 mph /  14.5 km/h 96 % 0.00 in /  0 mm
08:26 37.3 °F /  2.9 °C 36.3 °F /  2.4 °C 30.25 in /  1024.3 hPa SW 3.0 mph /  4.8 km/h 9.0 mph /  14.5 km/h 96 % 0.00 in /  0 mm
08:31 37.5 °F /  3.1 °C 36.5 °F /  2.5 °C 30.25 in /  1024.3 hPa SW 5.0 mph /  8 km/h 9.0 mph /  14.5 km/h 96 % 0.00 in /  0 mm
08:36 37.8 °F /  3.2 °C 36.8 °F /  2.7 °C 30.25 in /  1024.3 hPa SW 1.0 mph /  1.6 km/h 7.0 mph /  11.3 km/h 96 % 0.00 in /  0 mm
08:41 38.1 °F /  3.4 °C 37.1 °F /  2.8 °C 30.25 in /  1024.3 hPa SW 3.0 mph /  4.8 km/h 8.0 mph /  12.9 km/h 96 % 0.00 in /  0 mm
08:46 38.6 °F /  3.7 °C 37.3 °F /  2.9 °C 30.25 in /  1024.3 hPa WSW 6.7 mph /  10.8 km/h 9.0 mph /  14.5 km/h 95 % 0.00 in /  0 mm
08:51 39.0 °F /  3.9 °C 37.2 °F /  2.9 °C 30.24 in /  1023.9 hPa SW 5.0 mph /  8 km/h 9.0 mph /  14.5 km/h 93 % 0.00 in /  0 mm
08:56 39.5 °F /  4.2 °C 37.4 °F /  3 °C 30.24 in /  1023.9 hPa SW 5.0 mph /  8 km/h 12.0 mph /  19.3 km/h 92 % 0.00 in /  0 mm
09:01 40.2 °F /  4.6 °C 37.2 °F /  2.9 °C 30.24 in /  1023.9 hPa WSW 8.1 mph /  13 km/h 10.0 mph /  16.1 km/h 89 % 0.00 in /  0 mm
09:06 40.9 °F /  4.9 °C 37.3 °F /  2.9 °C 30.24 in /  1023.9 hPa SW 2.0 mph /  3.2 km/h 12.0 mph /  19.3 km/h 87 % 0.00 in /  0 mm
09:11 41.5 °F /  5.3 °C 37.0 °F /  2.8 °C 30.24 in /  1023.9 hPa SW 7.0 mph /  11.3 km/h 12.0 mph /  19.3 km/h 84 % 0.00 in /  0 mm
09:16 42.1 °F /  5.6 °C 36.4 °F /  2.4 °C 30.24 in /  1023.9 hPa SW 9.2 mph /  14.8 km/h 12.7 mph /  20.4 km/h 80 % 0.00 in /  0 mm
09:21 42.7 °F /  5.9 °C 36.3 °F /  2.4 °C 30.24 in /  1023.9 hPa SW 4.5 mph /  7.2 km/h 15.0 mph /  24.1 km/h 78 % 0.00 in /  0 mm
09:26 43.2 °F /  6.2 °C 35.8 °F /  2.1 °C 30.24 in /  1023.9 hPa SW 4.4 mph /  7.1 km/h 10.4 mph /  16.7 km/h 75 % 0.00 in /  0 mm
09:31 43.8 °F /  6.6 °C 35.7 °F /  2.1 °C 30.24 in /  1023.9 hPa SSW 7.9 mph /  12.7 km/h 15.0 mph /  24.1 km/h 73 % 0.00 in /  0 mm
09:36 44.4 °F /  6.9 °C 35.6 °F /  2 °C 30.23 in /  1023.6 hPa SSW 7.4 mph /  11.9 km/h 15.0 mph /  24.1 km/h 71 % 0.00 in /  0 mm
09:41 44.8 °F /  7.1 °C 34.9 °F /  1.6 °C 30.24 in /  1023.9 hPa SSW 8.4 mph /  13.5 km/h 15.0 mph /  24.1 km/h 68 % 0.00 in /  0 mm
09:46 45.3 °F /  7.4 °C 35.0 °F /  1.7 °C 30.23 in /  1023.6 hPa WSW 8.2 mph /  13.2 km/h 11.0 mph /  17.7 km/h 67 % 0.00 in /  0 mm
09:51 45.8 °F /  7.7 °C 34.3 °F /  1.3 °C 30.24 in /  1023.9 hPa SSW 6.7 mph /  10.8 km/h 19.6 mph /  31.5 km/h 64 % 0.00 in /  0 mm
09:56 46.3 °F /  7.9 °C 34.4 °F /  1.3 °C 30.23 in /  1023.6 hPa SSW 8.0 mph /  12.9 km/h 20.7 mph /  33.3 km/h 63 % 0.00 in /  0 mm
10:01 46.8 °F /  8.2 °C 34.5 °F /  1.4 °C 30.23 in /  1023.6 hPa SW 8.3 mph /  13.4 km/h 12.7 mph /  20.4 km/h 62 % 0.00 in /  0 mm
10:06 47.3 °F /  8.5 °C 34.5 °F /  1.4 °C 30.23 in /  1023.6 hPa SW 4.6 mph /  7.4 km/h 11.5 mph /  18.5 km/h 61 % 0.00 in /  0 mm
10:11 47.8 °F /  8.8 °C 33.7 °F /  0.9 °C 30.22 in /  1023.2 hPa SSW 8.7 mph /  14 km/h 12.7 mph /  20.4 km/h 58 % 0.00 in /  0 mm
10:16 48.3 °F /  9.1 °C 33.8 °F /  1 °C 30.22 in /  1023.2 hPa SSE 9.2 mph /  14.8 km/h 12.0 mph /  19.3 km/h 57 % 0.00 in /  0 mm
10:21 49.0 °F /  9.4 °C 33.5 °F /  0.8 °C 30.22 in /  1023.2 hPa SW 8.0 mph /  12.9 km/h 12.7 mph /  20.4 km/h 55 % 0.00 in /  0 mm
10:26 49.4 °F /  9.7 °C 33.0 °F /  0.6 °C 30.22 in /  1023.2 hPa SSW 7.1 mph /  11.4 km/h 12.7 mph /  20.4 km/h 53 % 0.00 in /  0 mm
10:31 49.7 °F /  9.8 °C 33.2 °F /  0.7 °C 30.22 in /  1023.2 hPa SSW 8.1 mph /  13 km/h 13.8 mph /  22.2 km/h 53 % 0.00 in /  0 mm
10:36 50.0 °F /  10 °C 33.1 °F /  0.6 °C 30.22 in /  1023.2 hPa SW 7.0 mph /  11.3 km/h 19.6 mph /  31.5 km/h 52 % 0.00 in /  0 mm
10:42 50.4 °F /  10.2 °C 33.4 °F /  0.8 °C 30.22 in /  1023.2 hPa SW 8.8 mph /  14.2 km/h 16.1 mph /  25.9 km/h 52 % 0.00 in /  0 mm
10:47 50.7 °F /  10.4 °C 33.2 °F /  0.7 °C 30.21 in /  1022.9 hPa SSW 10.4 mph /  16.7 km/h 15.0 mph /  24.1 km/h 51 % 0.00 in /  0 mm
10:52 50.8 °F /  10.4 °C 32.3 °F /  0.2 °C 30.20 in /  1022.6 hPa SW 11.0 mph /  17.7 km/h 18.4 mph /  29.6 km/h 49 % 0.00 in /  0 mm
10:57 50.8 °F /  10.4 °C 31.8 °F /  -0.1 °C 30.20 in /  1022.6 hPa SW 6.7 mph /  10.8 km/h 17.3 mph /  27.8 km/h 48 % 0.00 in /  0 mm
10:58 50.8 °F /  10.4 °C 31.8 °F /  -0.1 °C 30.20 in /  1022.6 hPa WSW 8.6 mph /  13.8 km/h 15.0 mph /  24.1 km/h 48 % 0.00 in /  0 mm
11:03 50.9 °F /  10.5 °C 31.9 °F /  -0.1 °C 30.20 in /  1022.6 hPa WSW 7.3 mph /  11.7 km/h 13.0 mph /  20.9 km/h 48 % 0.00 in /  0 mm
11:08 51.0 °F /  10.6 °C 32.0 °F /  0 °C 30.20 in /  1022.6 hPa SW 6.2 mph /  10 km/h 12.0 mph /  19.3 km/h 48 % 0.00 in /  0 mm
11:13 51.0 °F /  10.6 °C 31.5 °F /  -0.3 °C 30.19 in /  1022.2 hPa WSW 7.7 mph /  12.4 km/h 13.8 mph /  22.2 km/h 47 % 0.00 in /  0 mm
11:18 51.0 °F /  10.6 °C 30.9 °F /  -0.6 °C 30.19 in /  1022.2 hPa SSW 6.0 mph /  9.7 km/h 17.3 mph /  27.8 km/h 46 % 0.00 in /  0 mm
11:24 51.0 °F /  10.6 °C 31.5 °F /  -0.3 °C 30.18 in /  1021.9 hPa SSW 6.6 mph /  10.6 km/h 16.1 mph /  25.9 km/h 47 % 0.00 in /  0 mm
11:26 51.0 °F /  10.6 °C 31.5 °F /  -0.3 °C 30.18 in /  1021.9 hPa WSW 3.3 mph /  5.3 km/h 8.1 mph /  13 km/h 47 % 0.00 in /  0 mm
11:30 51.3 °F /  10.7 °C 31.7 °F /  -0.2 °C 30.18 in /  1021.9 hPa SSW 10.5 mph /  16.9 km/h 15.0 mph /  24.1 km/h 47 % 0.00 in /  0 mm
11:36 51.3 °F /  10.7 °C 31.7 °F /  -0.2 °C 30.18 in /  1021.9 hPa SW 7.0 mph /  11.3 km/h 17.0 mph /  27.4 km/h 47 % 0.00 in /  0 mm
11:41 51.4 °F /  10.8 °C 31.8 °F /  -0.1 °C 30.17 in /  1021.6 hPa SW 6.0 mph /  9.7 km/h 16.0 mph /  25.7 km/h 47 % 0.00 in /  0 mm
11:46 51.5 °F /  10.8 °C 31.9 °F /  -0.1 °C 30.17 in /  1021.6 hPa WSW 6.8 mph /  10.9 km/h 12.7 mph /  20.4 km/h 47 % 0.00 in /  0 mm
11:51 51.6 °F /  10.9 °C 32.0 °F /  0 °C 30.17 in /  1021.6 hPa SW 6.0 mph /  9.7 km/h 15.0 mph /  24.1 km/h 47 % 0.00 in /  0 mm
11:56 51.6 °F /  10.9 °C 32.5 °F /  0.3 °C 30.16 in /  1021.2 hPa SW 7.0 mph /  11.3 km/h 13.0 mph /  20.9 km/h 48 % 0.00 in /  0 mm
12:01 51.3 °F /  10.7 °C 31.7 °F /  -0.2 °C 30.16 in /  1021.2 hPa WSW 7.5 mph /  12.1 km/h 16.1 mph /  25.9 km/h 47 % 0.00 in /  0 mm
12:06 51.2 °F /  10.7 °C 32.7 °F /  0.4 °C 30.16 in /  1021.2 hPa SSW 5.1 mph /  8.2 km/h 9.2 mph /  14.8 km/h 49 % 0.00 in /  0 mm
12:11 51.3 °F /  10.7 °C 32.8 °F /  0.4 °C 30.15 in /  1020.9 hPa South 5.3 mph /  8.5 km/h 12.7 mph /  20.4 km/h 49 % 0.00 in /  0 mm
12:16 51.5 °F /  10.8 °C 33.0 °F /  0.6 °C 30.15 in /  1020.9 hPa South 2.4 mph /  3.9 km/h 9.2 mph /  14.8 km/h 49 % 0.00 in /  0 mm
12:21 51.7 °F /  10.9 °C 33.1 °F /  0.6 °C 30.15 in /  1020.9 hPa SSW 7.2 mph /  11.6 km/h 13.8 mph /  22.2 km/h 49 % 0.00 in /  0 mm
12:26 52.0 °F /  11.1 °C 32.9 °F /  0.5 °C 30.15 in /  1020.9 hPa WSW 5.2 mph /  8.4 km/h 8.1 mph /  13 km/h 48 % 0.00 in /  0 mm
12:31 52.1 °F /  11.2 °C 33.5 °F /  0.8 °C 30.15 in /  1020.9 hPa SSW 2.9 mph /  4.7 km/h 5.0 mph /  8 km/h 49 % 0.00 in /  0 mm
12:36 52.3 °F /  11.3 °C 33.7 °F /  0.9 °C 30.14 in /  1020.5 hPa SSE 6.5 mph /  10.5 km/h 10.4 mph /  16.7 km/h 49 % 0.00 in /  0 mm
12:41 52.5 °F /  11.4 °C 33.4 °F /  0.8 °C 30.14 in /  1020.5 hPa SSW 4.7 mph /  7.6 km/h 10.4 mph /  16.7 km/h 48 % 0.00 in /  0 mm
12:46 52.6 °F /  11.4 °C 33.5 °F /  0.8 °C 30.14 in /  1020.5 hPa SW 4.4 mph /  7.1 km/h 9.0 mph /  14.5 km/h 48 % 0.00 in /  0 mm
12:51 52.7 °F /  11.5 °C 33.5 °F /  0.8 °C 30.13 in /  1020.2 hPa South 3.9 mph /  6.3 km/h 8.1 mph /  13 km/h 48 % 0.00 in /  0 mm
12:56 52.8 °F /  11.6 °C 33.1 °F /  0.6 °C 30.13 in /  1020.2 hPa South 5.5 mph /  8.9 km/h 18.4 mph /  29.6 km/h 47 % 0.00 in /  0 mm
13:01 53.0 °F /  11.7 °C 33.8 °F /  1 °C 30.13 in /  1020.2 hPa SSW 5.3 mph /  8.5 km/h 9.2 mph /  14.8 km/h 48 % 0.00 in /  0 mm
13:06 53.0 °F /  11.7 °C 33.8 °F /  1 °C 30.13 in /  1020.2 hPa SSW 5.7 mph /  9.2 km/h 10.4 mph /  16.7 km/h 48 % 0.00 in /  0 mm
13:11 53.0 °F /  11.7 °C 33.8 °F /  1 °C 30.12 in /  1019.9 hPa SSW 6.0 mph /  9.7 km/h 8.1 mph /  13 km/h 48 % 0.00 in /  0 mm
13:17 53.2 °F /  11.8 °C 34.5 °F /  1.4 °C 30.12 in /  1019.9 hPa South 3.4 mph /  5.5 km/h 5.0 mph /  8 km/h 49 % 0.00 in /  0 mm
13:22 53.4 °F /  11.9 °C 35.2 °F /  1.8 °C 30.12 in /  1019.9 hPa SW 5.2 mph /  8.4 km/h 13.8 mph /  22.2 km/h 50 % 0.00 in /  0 mm
13:27 53.5 °F /  11.9 °C 35.8 °F /  2.1 °C 30.12 in /  1019.9 hPa South 2.7 mph /  4.3 km/h 10.4 mph /  16.7 km/h 51 % 0.00 in /  0 mm
13:32 53.7 °F /  12.1 °C 36.5 °F /  2.5 °C 30.12 in /  1019.9 hPa WSW 4.7 mph /  7.6 km/h 9.2 mph /  14.8 km/h 52 % 0.00 in /  0 mm
13:37 53.8 °F /  12.1 °C 37.1 °F /  2.8 °C 30.11 in /  1019.5 hPa SSE 4.7 mph /  7.6 km/h 8.1 mph /  13 km/h 53 % 0.00 in /  0 mm
13:42 54.0 °F /  12.2 °C 38.2 °F /  3.4 °C 30.10 in /  1019.2 hPa South 2.1 mph /  3.4 km/h 4.6 mph /  7.4 km/h 55 % 0.00 in /  0 mm
13:47 54.2 °F /  12.3 °C 38.4 °F /  3.6 °C 30.10 in /  1019.2 hPa South 0.3 mph /  0.5 km/h 3.5 mph /  5.6 km/h 55 % 0.00 in /  0 mm
13:52 54.2 °F /  12.3 °C 39.3 °F /  4.1 °C 30.09 in /  1018.8 hPa SSW 6.7 mph /  10.8 km/h 11.5 mph /  18.5 km/h 57 % 0.00 in /  0 mm
13:57 54.0 °F /  12.2 °C 39.5 °F /  4.2 °C 30.09 in /  1018.8 hPa SSW 7.2 mph /  11.6 km/h 15.0 mph /  24.1 km/h 58 % 0.00 in /  0 mm
14:02 53.6 °F /  12 °C 39.6 °F /  4.2 °C 30.09 in /  1018.8 hPa SSW 7.3 mph /  11.7 km/h 10.4 mph /  16.7 km/h 59 % 0.00 in /  0 mm
14:07 53.3 °F /  11.8 °C 39.8 °F /  4.3 °C 30.09 in /  1018.8 hPa South 3.2 mph /  5.1 km/h 10.4 mph /  16.7 km/h 60 % 0.00 in /  0 mm
14:12 53.1 °F /  11.7 °C 40.4 °F /  4.7 °C 30.08 in /  1018.5 hPa South 5.4 mph /  8.7 km/h 8.1 mph /  13 km/h 62 % 0.00 in /  0 mm
14:17 53.0 °F /  11.7 °C 40.7 °F /  4.8 °C 30.08 in /  1018.5 hPa WSW 3.5 mph /  5.6 km/h 8.1 mph /  13 km/h 63 % 0.00 in /  0 mm
14:22 52.9 °F /  11.6 °C 41.0 °F /  5 °C 30.08 in /  1018.5 hPa South 4.5 mph /  7.2 km/h 8.1 mph /  13 km/h 64 % 0.00 in /  0 mm
14:27 52.7 °F /  11.5 °C 40.9 °F /  4.9 °C 30.08 in /  1018.5 hPa SSW 4.3 mph /  6.9 km/h 6.9 mph /  11.1 km/h 64 % 0.00 in /  0 mm
14:32 52.7 °F /  11.5 °C 41.3 °F /  5.2 °C 30.08 in /  1018.5 hPa SW 0.3 mph /  0.5 km/h 6.9 mph /  11.1 km/h 65 % 0.00 in /  0 mm
14:37 52.7 °F /  11.5 °C 41.3 °F /  5.2 °C 30.07 in /  1018.2 hPa SSW 2.1 mph /  3.4 km/h 9.2 mph /  14.8 km/h 65 % 0.00 in /  0 mm
14:43 52.7 °F /  11.5 °C 41.7 °F /  5.4 °C 30.08 in /  1018.5 hPa SSW 3.1 mph /  5 km/h 9.2 mph /  14.8 km/h 66 % 0.00 in /  0 mm
14:48 52.7 °F /  11.5 °C 41.7 °F /  5.4 °C 30.07 in /  1018.2 hPa SSW 4.5 mph /  7.2 km/h 10.4 mph /  16.7 km/h 66 % 0.00 in /  0 mm
14:53 52.6 °F /  11.4 °C 41.6 °F /  5.3 °C 30.07 in /  1018.2 hPa South 3.6 mph /  5.8 km/h 6.9 mph /  11.1 km/h 66 % 0.00 in /  0 mm
14:58 52.5 °F /  11.4 °C 41.9 °F /  5.5 °C 30.07 in /  1018.2 hPa SSW 6.2 mph /  10 km/h 10.4 mph /  16.7 km/h 67 % 0.00 in /  0 mm
15:03 52.4 °F /  11.3 °C 41.8 °F /  5.4 °C 30.07 in /  1018.2 hPa SSW 3.6 mph /  5.8 km/h 5.8 mph /  9.3 km/h 67 % 0.00 in /  0 mm
15:08 52.3 °F /  11.3 °C 41.7 °F /  5.4 °C 30.07 in /  1018.2 hPa South 7.8 mph /  12.6 km/h 11.5 mph /  18.5 km/h 67 % 0.00 in /  0 mm
15:13 52.1 °F /  11.2 °C 41.9 °F /  5.5 °C 30.06 in /  1017.8 hPa SSW 4.2 mph /  6.8 km/h 8.1 mph /  13 km/h 68 % 0.00 in /  0 mm
15:18 51.9 °F /  11.1 °C 41.7 °F /  5.4 °C 30.07 in /  1018.2 hPa South 5.6 mph /  9 km/h 9.2 mph /  14.8 km/h 68 % 0.00 in /  0 mm
15:23 51.6 °F /  10.9 °C 41.8 °F /  5.4 °C 30.06 in /  1017.8 hPa SSW 5.0 mph /  8 km/h 8.1 mph /  13 km/h 69 % 0.00 in /  0 mm
15:28 51.5 °F /  10.8 °C 41.7 °F /  5.4 °C 30.06 in /  1017.8 hPa South 6.7 mph /  10.8 km/h 9.0 mph /  14.5 km/h 69 % 0.00 in /  0 mm
15:33 51.1 °F /  10.6 °C 41.7 °F /  5.4 °C 30.06 in /  1017.8 hPa SSW 7.3 mph /  11.7 km/h 13.8 mph /  22.2 km/h 70 % 0.00 in /  0 mm
15:38 50.9 °F /  10.5 °C 41.5 °F /  5.3 °C 30.06 in /  1017.8 hPa South 4.8 mph /  7.7 km/h 9.0 mph /  14.5 km/h 70 % 0.00 in /  0 mm
15:43 50.7 °F /  10.4 °C 41.6 °F /  5.3 °C 30.05 in /  1017.5 hPa SSE 3.0 mph /  4.8 km/h 6.9 mph /  11.1 km/h 71 % 0.00 in /  0 mm
15:49 50.5 °F /  10.3 °C 41.4 °F /  5.2 °C 30.06 in /  1017.8 hPa SSW 4.4 mph /  7.1 km/h 6.9 mph /  11.1 km/h 71 % 0.00 in /  0 mm
15:54 50.4 °F /  10.2 °C 41.7 °F /  5.4 °C 30.06 in /  1017.8 hPa SSW 2.4 mph /  3.9 km/h 5.8 mph /  9.3 km/h 72 % 0.00 in /  0 mm
15:59 50.3 °F /  10.2 °C 41.6 °F /  5.3 °C 30.06 in /  1017.8 hPa SW 4.9 mph /  7.9 km/h 15.0 mph /  24.1 km/h 72 % 0.00 in /  0 mm
16:04 50.2 °F /  10.1 °C 41.5 °F /  5.3 °C 30.06 in /  1017.8 hPa SSW 5.8 mph /  9.3 km/h 9.2 mph /  14.8 km/h 72 % 0.00 in /  0 mm
16:09 50.0 °F /  10 °C 41.7 °F /  5.4 °C 30.06 in /  1017.8 hPa South 7.6 mph /  12.2 km/h 17.3 mph /  27.8 km/h 73 % 0.00 in /  0 mm
16:14 49.9 °F /  9.9 °C 41.6 °F /  5.3 °C 30.06 in /  1017.8 hPa SW 7.7 mph /  12.4 km/h 13.0 mph /  20.9 km/h 73 % 0.00 in /  0 mm
16:19 49.7 °F /  9.8 °C 41.4 °F /  5.2 °C 30.06 in /  1017.8 hPa SSW 4.0 mph /  6.4 km/h 8.0 mph /  12.9 km/h 73 % 0.00 in /  0 mm
16:24 49.7 °F /  9.8 °C 41.7 °F /  5.4 °C 30.06 in /  1017.8 hPa South 3.7 mph /  6 km/h 8.0 mph /  12.9 km/h 74 % 0.00 in /  0 mm
16:29 49.5 °F /  9.7 °C 41.6 °F /  5.3 °C 30.05 in /  1017.5 hPa South 5.8 mph /  9.3 km/h 10.4 mph /  16.7 km/h 74 % 0.00 in /  0 mm
16:34 49.5 °F /  9.7 °C 41.9 °F /  5.5 °C 30.05 in /  1017.5 hPa SW 2.2 mph /  3.5 km/h 4.6 mph /  7.4 km/h 75 % 0.00 in /  0 mm
16:39 49.4 °F /  9.7 °C 41.8 °F /  5.4 °C 30.05 in /  1017.5 hPa South 4.7 mph /  7.6 km/h 14.0 mph /  22.5 km/h 75 % 0.00 in /  0 mm
16:40 49.3 °F /  9.6 °C 41.7 °F /  5.4 °C 30.05 in /  1017.5 hPa SSW 6.9 mph /  11.1 km/h 13.8 mph /  22.2 km/h 75 % 0.00 in /  0 mm
16:45 49.3 °F /  9.6 °C 41.7 °F /  5.4 °C 30.05 in /  1017.5 hPa SSW 5.7 mph /  9.2 km/h 11.5 mph /  18.5 km/h 75 % 0.00 in /  0 mm
16:50 49.2 °F /  9.6 °C 41.6 °F /  5.3 °C 30.04 in /  1017.2 hPa SW 5.2 mph /  8.4 km/h 10.4 mph /  16.7 km/h 75 % 0.00 in /  0 mm
16:55 49.2 °F /  9.6 °C 42.0 °F /  5.6 °C 30.04 in /  1017.2 hPa SSW 4.8 mph /  7.7 km/h 9.2 mph /  14.8 km/h 76 % 0.00 in /  0 mm
17:00 49.1 °F /  9.5 °C 41.9 °F /  5.5 °C 30.05 in /  1017.5 hPa SSW 2.8 mph /  4.5 km/h 7.0 mph /  11.3 km/h 76 % 0.00 in /  0 mm
17:05 49.1 °F /  9.5 °C 41.9 °F /  5.5 °C 30.04 in /  1017.2 hPa South 4.9 mph /  7.9 km/h 8.0 mph /  12.9 km/h 76 % 0.00 in /  0 mm
17:10 49.0 °F /  9.4 °C 41.8 °F /  5.4 °C 30.04 in /  1017.2 hPa South 4.6 mph /  7.4 km/h 8.0 mph /  12.9 km/h 76 % 0.00 in /  0 mm
17:15 48.9 °F /  9.4 °C 42.0 °F /  5.6 °C 30.04 in /  1017.2 hPa SSW 4.8 mph /  7.7 km/h 10.0 mph /  16.1 km/h 77 % 0.00 in /  0 mm
17:20 48.9 °F /  9.4 °C 42.0 °F /  5.6 °C 30.04 in /  1017.2 hPa South 4.7 mph /  7.6 km/h 9.2 mph /  14.8 km/h 77 % 0.00 in /  0 mm
17:25 48.8 °F /  9.3 °C 41.9 °F /  5.5 °C 30.04 in /  1017.2 hPa SSW 4.2 mph /  6.8 km/h 9.2 mph /  14.8 km/h 77 % 0.00 in /  0 mm
17:30 48.8 °F /  9.3 °C 41.9 °F /  5.5 °C 30.03 in /  1016.8 hPa South 4.8 mph /  7.7 km/h 10.4 mph /  16.7 km/h 77 % 0.00 in /  0 mm
17:35 48.7 °F /  9.3 °C 42.1 °F /  5.6 °C 30.04 in /  1017.2 hPa SSW 5.0 mph /  8 km/h 9.0 mph /  14.5 km/h 78 % 0.00 in /  0 mm
17:40 48.6 °F /  9.2 °C 42.0 °F /  5.6 °C 30.04 in /  1017.2 hPa South 4.9 mph /  7.9 km/h 6.9 mph /  11.1 km/h 78 % 0.00 in /  0 mm
17:45 48.5 °F /  9.2 °C 42.0 °F /  5.6 °C 30.04 in /  1017.2 hPa South 2.0 mph /  3.2 km/h 12.0 mph /  19.3 km/h 78 % 0.00 in /  0 mm
17:50 48.4 °F /  9.1 °C 41.9 °F /  5.5 °C 30.04 in /  1017.2 hPa SSW 3.0 mph /  4.8 km/h 10.0 mph /  16.1 km/h 78 % 0.00 in /  0 mm
17:55 48.3 °F /  9.1 °C 42.1 °F /  5.6 °C 30.04 in /  1017.2 hPa SSW 5.5 mph /  8.9 km/h 8.0 mph /  12.9 km/h 79 % 0.00 in /  0 mm
18:01 48.2 °F /  9 °C 42.0 °F /  5.6 °C 30.04 in /  1017.2 hPa SSW 5.3 mph /  8.5 km/h 12.7 mph /  20.4 km/h 79 % 0.00 in /  0 mm
18:06 48.2 °F /  9 °C 42.0 °F /  5.6 °C 30.04 in /  1017.2 hPa SSW 3.9 mph /  6.3 km/h 10.4 mph /  16.7 km/h 79 % 0.00 in /  0 mm
18:11 48.2 °F /  9 °C 42.0 °F /  5.6 °C 30.04 in /  1017.2 hPa South 5.1 mph /  8.2 km/h 8.1 mph /  13 km/h 79 % 0.00 in /  0 mm
18:16 48.3 °F /  9.1 °C 42.4 °F /  5.8 °C 30.04 in /  1017.2 hPa SSW 5.6 mph /  9 km/h 9.2 mph /  14.8 km/h 80 % 0.00 in /  0 mm
18:21 48.3 °F /  9.1 °C 42.4 °F /  5.8 °C 30.04 in /  1017.2 hPa South 7.8 mph /  12.6 km/h 12.7 mph /  20.4 km/h 80 % 0.00 in /  0 mm
18:26 48.5 °F /  9.2 °C 42.6 °F /  5.9 °C 30.05 in /  1017.5 hPa SSW 8.3 mph /  13.4 km/h 11.5 mph /  18.5 km/h 80 % 0.00 in /  0 mm
18:31 48.6 °F /  9.2 °C 42.4 °F /  5.8 °C 30.05 in /  1017.5 hPa SW 4.5 mph /  7.2 km/h 9.2 mph /  14.8 km/h 79 % 0.00 in /  0 mm
18:36 48.6 °F /  9.2 °C 42.4 °F /  5.8 °C 30.05 in /  1017.5 hPa South 3.8 mph /  6.1 km/h 10.4 mph /  16.7 km/h 79 % 0.00 in /  0 mm
18:41 48.7 °F /  9.3 °C 42.5 °F /  5.8 °C 30.05 in /  1017.5 hPa SSW 5.4 mph /  8.7 km/h 12.7 mph /  20.4 km/h 79 % 0.00 in /  0 mm
18:46 48.7 °F /  9.3 °C 42.5 °F /  5.8 °C 30.05 in /  1017.5 hPa SW 6.5 mph /  10.5 km/h 11.5 mph /  18.5 km/h 79 % 0.00 in /  0 mm
18:51 48.8 °F /  9.3 °C 42.6 °F /  5.9 °C 30.05 in /  1017.5 hPa SSW 6.9 mph /  11.1 km/h 10.4 mph /  16.7 km/h 79 % 0.00 in /  0 mm
18:56 48.9 °F /  9.4 °C 42.7 °F /  5.9 °C 30.05 in /  1017.5 hPa South 4.2 mph /  6.8 km/h 8.1 mph /  13 km/h 79 % 0.00 in /  0 mm
19:01 48.9 °F /  9.4 °C 42.7 °F /  5.9 °C 30.05 in /  1017.5 hPa SSW 7.4 mph /  11.9 km/h 10.4 mph /  16.7 km/h 79 % 0.00 in /  0 mm
19:06 48.9 °F /  9.4 °C 42.7 °F /  5.9 °C 30.05 in /  1017.5 hPa SSW 2.9 mph /  4.7 km/h 6.9 mph /  11.1 km/h 79 % 0.00 in /  0 mm
19:11 49.0 °F /  9.4 °C 42.8 °F /  6 °C 30.05 in /  1017.5 hPa SW 3.6 mph /  5.8 km/h 6.9 mph /  11.1 km/h 79 % 0.00 in /  0 mm
19:16 48.9 °F /  9.4 °C 42.7 °F /  5.9 °C 30.05 in /  1017.5 hPa SSW 5.2 mph /  8.4 km/h 11.5 mph /  18.5 km/h 79 % 0.00 in /  0 mm
19:21 49.0 °F /  9.4 °C 42.8 °F /  6 °C 30.05 in /  1017.5 hPa South 4.6 mph /  7.4 km/h 8.1 mph /  13 km/h 79 % 0.00 in /  0 mm
19:26 48.9 °F /  9.4 °C 42.7 °F /  5.9 °C 30.04 in /  1017.2 hPa SSE 3.3 mph /  5.3 km/h 9.2 mph /  14.8 km/h 79 % 0.00 in /  0 mm
19:32 48.9 °F /  9.4 °C 42.7 °F /  5.9 °C 30.04 in /  1017.2 hPa SSW 5.8 mph /  9.3 km/h 13.0 mph /  20.9 km/h 79 % 0.00 in /  0 mm
19:37 48.9 °F /  9.4 °C 42.7 °F /  5.9 °C 30.04 in /  1017.2 hPa SSW 5.6 mph /  9 km/h 8.1 mph /  13 km/h 79 % 0.00 in /  0 mm
19:42 49.0 °F /  9.4 °C 42.8 °F /  6 °C 30.04 in /  1017.2 hPa South 5.3 mph /  8.5 km/h 11.5 mph /  18.5 km/h 79 % 0.00 in /  0 mm
19:47 49.1 °F /  9.5 °C 42.9 °F /  6.1 °C 30.04 in /  1017.2 hPa South 4.8 mph /  7.7 km/h 10.4 mph /  16.7 km/h 79 % 0.00 in /  0 mm
19:52 49.1 °F /  9.5 °C 42.5 °F /  5.8 °C 30.04 in /  1017.2 hPa South 4.4 mph /  7.1 km/h 10.4 mph /  16.7 km/h 78 % 0.00 in /  0 mm
19:57 49.1 °F /  9.5 °C 42.5 °F /  5.8 °C 30.04 in /  1017.2 hPa South 6.9 mph /  11.1 km/h 11.5 mph /  18.5 km/h 78 % 0.00 in /  0 mm
20:02 49.2 °F /  9.6 °C 42.6 °F /  5.9 °C 30.04 in /  1017.2 hPa South 4.0 mph /  6.4 km/h 8.1 mph /  13 km/h 78 % 0.00 in /  0 mm
20:07 49.2 °F /  9.6 °C 42.6 °F /  5.9 °C 30.04 in /  1017.2 hPa SSE 6.7 mph /  10.8 km/h 11.5 mph /  18.5 km/h 78 % 0.00 in /  0 mm
20:12 49.2 °F /  9.6 °C 42.6 °F /  5.9 °C 30.04 in /  1017.2 hPa South 3.9 mph /  6.3 km/h 5.8 mph /  9.3 km/h 78 % 0.00 in /  0 mm
20:17 49.2 °F /  9.6 °C 42.6 °F /  5.9 °C 30.04 in /  1017.2 hPa SSW 4.5 mph /  7.2 km/h 9.2 mph /  14.8 km/h 78 % 0.00 in /  0 mm
20:22 49.2 °F /  9.6 °C 42.6 °F /  5.9 °C 30.03 in /  1016.8 hPa South 2.8 mph /  4.5 km/h 7.0 mph /  11.3 km/h 78 % 0.00 in /  0 mm
20:27 49.1 °F /  9.5 °C 42.5 °F /  5.8 °C 30.03 in /  1016.8 hPa South 3.1 mph /  5 km/h 5.8 mph /  9.3 km/h 78 % 0.00 in /  0 mm
20:32 49.0 °F /  9.4 °C 42.4 °F /  5.8 °C 30.03 in /  1016.8 hPa SSW 3.7 mph /  6 km/h 10.4 mph /  16.7 km/h 78 % 0.00 in /  0 mm
20:37 49.0 °F /  9.4 °C 42.4 °F /  5.8 °C 30.03 in /  1016.8 hPa SSW 5.0 mph /  8 km/h 8.1 mph /  13 km/h 78 % 0.00 in /  0 mm
20:42 49.0 °F /  9.4 °C 42.4 °F /  5.8 °C 30.03 in /  1016.8 hPa South 4.2 mph /  6.8 km/h 9.2 mph /  14.8 km/h 78 % 0.00 in /  0 mm
20:47 49.0 °F /  9.4 °C 42.4 °F /  5.8 °C 30.03 in /  1016.8 hPa South 6.3 mph /  10.1 km/h 11.5 mph /  18.5 km/h 78 % 0.00 in /  0 mm
20:52 48.9 °F /  9.4 °C 42.3 °F /  5.7 °C 30.03 in /  1016.8 hPa SSW 4.1 mph /  6.6 km/h 11.5 mph /  18.5 km/h 78 % 0.00 in /  0 mm
20:57 48.9 °F /  9.4 °C 42.3 °F /  5.7 °C 30.03 in /  1016.8 hPa SSW 4.2 mph /  6.8 km/h 6.9 mph /  11.1 km/h 78 % 0.00 in /  0 mm
21:02 48.9 °F /  9.4 °C 42.3 °F /  5.7 °C 30.02 in /  1016.5 hPa South 6.1 mph /  9.8 km/h 6.9 mph /  11.1 km/h 78 % 0.00 in /  0 mm
21:08 48.9 °F /  9.4 °C 42.0 °F /  5.6 °C 30.02 in /  1016.5 hPa South 6.0 mph /  9.7 km/h 11.5 mph /  18.5 km/h 77 % 0.00 in /  0 mm
21:13 48.9 °F /  9.4 °C 42.0 °F /  5.6 °C 30.02 in /  1016.5 hPa South 6.4 mph /  10.3 km/h 9.2 mph /  14.8 km/h 77 % 0.00 in /  0 mm
21:18 48.9 °F /  9.4 °C 42.0 °F /  5.6 °C 30.02 in /  1016.5 hPa SSW 4.5 mph /  7.2 km/h 13.8 mph /  22.2 km/h 77 % 0.00 in /  0 mm
21:23 49.0 °F /  9.4 °C 42.1 °F /  5.6 °C 30.01 in /  1016.1 hPa SSW 9.3 mph /  15 km/h 19.6 mph /  31.5 km/h 77 % 0.00 in /  0 mm
21:28 49.2 °F /  9.6 °C 42.3 °F /  5.7 °C 30.01 in /  1016.1 hPa SSW 6.0 mph /  9.7 km/h 11.5 mph /  18.5 km/h 77 % 0.00 in /  0 mm
21:33 49.4 °F /  9.7 °C 42.5 °F /  5.8 °C 30.01 in /  1016.1 hPa SSW 6.0 mph /  9.7 km/h 10.4 mph /  16.7 km/h 77 % 0.00 in /  0 mm
21:38 49.6 °F /  9.8 °C 42.3 °F /  5.7 °C 30.00 in /  1015.8 hPa SSW 6.7 mph /  10.8 km/h 11.5 mph /  18.5 km/h 76 % 0.00 in /  0 mm
21:43 49.6 °F /  9.8 °C 42.3 °F /  5.7 °C 30.00 in /  1015.8 hPa SSW 4.7 mph /  7.6 km/h 8.1 mph /  13 km/h 76 % 0.00 in /  0 mm
21:48 49.7 °F /  9.8 °C 42.4 °F /  5.8 °C 30.00 in /  1015.8 hPa SSW 7.4 mph /  11.9 km/h 10.4 mph /  16.7 km/h 76 % 0.00 in /  0 mm
21:53 49.8 °F /  9.9 °C 42.5 °F /  5.8 °C 30.00 in /  1015.8 hPa SSW 7.0 mph /  11.3 km/h 11.5 mph /  18.5 km/h 76 % 0.00 in /  0 mm
21:58 49.8 °F /  9.9 °C 42.2 °F /  5.7 °C 30.00 in /  1015.8 hPa SSW 7.0 mph /  11.3 km/h 10.4 mph /  16.7 km/h 75 % 0.00 in /  0 mm
22:03 49.9 °F /  9.9 °C 42.3 °F /  5.7 °C 29.99 in /  1015.5 hPa SSW 8.0 mph /  12.9 km/h 11.5 mph /  18.5 km/h 75 % 0.00 in /  0 mm
22:08 50.0 °F /  10 °C 42.4 °F /  5.8 °C 29.99 in /  1015.5 hPa SW 8.8 mph /  14.2 km/h 15.0 mph /  24.1 km/h 75 % 0.00 in /  0 mm
22:13 50.0 °F /  10 °C 42.4 °F /  5.8 °C 29.99 in /  1015.5 hPa South 7.2 mph /  11.6 km/h 12.0 mph /  19.3 km/h 75 % 0.00 in /  0 mm
22:18 50.0 °F /  10 °C 42.4 °F /  5.8 °C 29.99 in /  1015.5 hPa South 8.6 mph /  13.8 km/h 16.0 mph /  25.7 km/h 75 % 0.00 in /  0 mm
22:23 49.9 °F /  9.9 °C 42.3 °F /  5.7 °C 29.99 in /  1015.5 hPa SSW 6.6 mph /  10.6 km/h 11.5 mph /  18.5 km/h 75 % 0.00 in /  0 mm
22:28 49.8 °F /  9.9 °C 42.5 °F /  5.8 °C 29.99 in /  1015.5 hPa SSW 6.7 mph /  10.8 km/h 10.0 mph /  16.1 km/h 76 % 0.00 in /  0 mm
22:33 49.7 °F /  9.8 °C 42.4 °F /  5.8 °C 29.98 in /  1015.1 hPa SSW 7.5 mph /  12.1 km/h 9.2 mph /  14.8 km/h 76 % 0.00 in /  0 mm
22:38 49.6 °F /  9.8 °C 42.7 °F /  5.9 °C 29.99 in /  1015.5 hPa SSW 6.3 mph /  10.1 km/h 11.0 mph /  17.7 km/h 77 % 0.00 in /  0 mm
22:43 49.5 °F /  9.7 °C 42.6 °F /  5.9 °C 29.99 in /  1015.5 hPa SSW 7.6 mph /  12.2 km/h 8.0 mph /  12.9 km/h 77 % 0.00 in /  0 mm
22:49 49.4 °F /  9.7 °C 42.5 °F /  5.8 °C 29.99 in /  1015.5 hPa South 5.9 mph /  9.5 km/h 10.4 mph /  16.7 km/h 77 % 0.00 in /  0 mm
22:54 49.3 °F /  9.6 °C 42.7 °F /  5.9 °C 29.99 in /  1015.5 hPa SSW 5.4 mph /  8.7 km/h 11.5 mph /  18.5 km/h 78 % 0.00 in /  0 mm
22:59 49.3 °F /  9.6 °C 42.7 °F /  5.9 °C 29.99 in /  1015.5 hPa SE 4.8 mph /  7.7 km/h 11.5 mph /  18.5 km/h 78 % 0.00 in /  0 mm
23:04 49.2 °F /  9.6 °C 43.0 °F /  6.1 °C 29.99 in /  1015.5 hPa SW 5.4 mph /  8.7 km/h 11.5 mph /  18.5 km/h 79 % 0.00 in /  0 mm
23:09 49.2 °F /  9.6 °C 43.0 °F /  6.1 °C 29.99 in /  1015.5 hPa South 7.3 mph /  11.7 km/h 11.5 mph /  18.5 km/h 79 % 0.00 in /  0 mm
23:14 49.2 °F /  9.6 °C 43.0 °F /  6.1 °C 29.99 in /  1015.5 hPa SSW 6.1 mph /  9.8 km/h 12.0 mph /  19.3 km/h 79 % 0.00 in /  0 mm
23:19 49.3 °F /  9.6 °C 43.1 °F /  6.2 °C 29.99 in /  1015.5 hPa WSW 4.4 mph /  7.1 km/h 8.0 mph /  12.9 km/h 79 % 0.00 in /  0 mm
23:24 49.4 °F /  9.7 °C 43.5 °F /  6.4 °C 29.99 in /  1015.5 hPa SSW 4.9 mph /  7.9 km/h 10.0 mph /  16.1 km/h 80 % 0.00 in /  0 mm
23:29 49.4 °F /  9.7 °C 43.5 °F /  6.4 °C 29.99 in /  1015.5 hPa South 7.4 mph /  11.9 km/h 11.5 mph /  18.5 km/h 80 % 0.00 in /  0 mm
23:34 49.5 °F /  9.7 °C 43.6 °F /  6.4 °C 29.99 in /  1015.5 hPa South 4.4 mph /  7.1 km/h 7.0 mph /  11.3 km/h 80 % 0.00 in /  0 mm
23:39 49.5 °F /  9.7 °C 43.6 °F /  6.4 °C 29.98 in /  1015.1 hPa South 6.8 mph /  10.9 km/h 14.0 mph /  22.5 km/h 80 % 0.00 in /  0 mm
23:44 49.5 °F /  9.7 °C 43.6 °F /  6.4 °C 29.98 in /  1015.1 hPa SSW 5.6 mph /  9 km/h 9.2 mph /  14.8 km/h 80 % 0.00 in /  0 mm
23:49 49.6 °F /  9.8 °C 43.7 °F /  6.5 °C 29.98 in /  1015.1 hPa South 7.2 mph /  11.6 km/h 11.5 mph /  18.5 km/h 80 % 0.00 in /  0 mm
23:54 49.6 °F /  9.8 °C 43.7 °F /  6.5 °C 29.98 in /  1015.1 hPa SSW 6.3 mph /  10.1 km/h 11.5 mph /  18.5 km/h 80 % 0.00 in /  0 mm
23:59 49.6 °F /  9.8 °C 43.7 °F /  6.5 °C 29.97 in /  1014.8 hPa SSW 5.7 mph /  9.2 km/h 9.2 mph /  14.8 km/h 80 % 0.00 in /  0 mm
Crab Meadow Weather
Compliments of Weather Underground - 3 mb

Script developed by  Jim McMurry - jmcmurry@mwt.net Adapted for the template by  Wim van der Kuil - Leuven-Template.eu

Weather Terms: Heat Index - The apparent temperature that describes the combined effect of high temperatures and high levels of humidity, which reduces the body's ability to cool itself.